Ms Braemar — C6SY7 — position and weather

sailwx.info

Track history (hours):
 
Tides and Currents Weather Stations Pressure Air Temp Water Temp Dewpoint Dewpoint Depression Visibility Wind Speed Wind Dir Waves Ship Positions

Ms Braemar

Last reported at 2017-Oct-17 17:58 UTC. Time now 2017-Oct-18 11:06 UTC.
Position N 39°18' W 009°45'.

Length 196 m; draft 5.7 m.

Type: Passenger vessel. MMSI: 311541000.

Date/timePositionNaut miles runAvg speedWind from/ knotsBaromVisibWave heightAir tempDewpointWater temp
2017-Oct-17 17:58N 39°18' W 009°45'714.9
2017-Oct-17 17:30N 39°12' W 009°44'815.6
2017-Oct-17 17:00N 39°04' W 009°44'815.3
2017-Oct-17 16:30N 38°56' W 009°44'815.5
2017-Oct-17 16:00N 38°48' W 009°43'815.4
2017-Oct-17 15:30N 38°41' W 009°43'714.0
2017-Oct-17 15:00N 38°37' W 009°35'815.3
2017-Oct-17 14:30N 38°36' W 009°25'815.3
2017-Oct-17 14:00N 38°41' W 009°18'711.8
2017-Oct-17 13:25N 38°42' W 009°09'2 3.9
2017-Oct-17 12:59N 38°43' W 009°07'0 0.0
2017-Oct-17 12:14N 38°43' W 009°07'0 0.0
2017-Oct-17 11:59N 38°43' W 009°07'0 0.0
2017-Oct-17 11:29N 38°43' W 009°07'0 0.0
2017-Oct-17 08:59N 38°43' W 009°07'0 0.0
2017-Oct-17 08:20N 38°43' W 009°07'0 0.0
2017-Oct-17 07:56N 38°43' W 009°07'0 0.0
2017-Oct-17 07:29N 38°43' W 009°07'0 0.0
2017-Oct-17 06:59N 38°43' W 009°07'0 0.0
2017-Oct-17 06:29N 38°43' W 009°07'0 0.0
2017-Oct-17 05:59N 38°43' W 009°07'0 0.0
2017-Oct-17 05:29N 38°43' W 009°07'0 0.0
2017-Oct-17 04:56N 38°43' W 009°07'0 0.0
2017-Oct-17 04:29N 38°43' W 009°07'0 0.0
2017-Oct-17 03:59N 38°43' W 009°07'0 0.0
2017-Oct-17 03:14N 38°43' W 009°07'0 0.0
2017-Oct-17 02:59N 38°43' W 009°07'0 0.0
2017-Oct-17 02:29N 38°43' W 009°07'0 0.0
2017-Oct-17 01:59N 38°43' W 009°07'0 0.0
2017-Oct-17 01:11N 38°43' W 009°07'0 0.0
2017-Oct-17 00:59N 38°43' W 009°07'0 0.0
2017-Oct-17 00:01N 38°43' W 009°07'0 0.0
2017-Oct-16 23:40N 38°43' W 009°07'0 0.0
2017-Oct-16 23:28N 38°43' W 009°07'0 0.0
2017-Oct-16 23:00N 38°43' W 009°07'0 0.0
2017-Oct-16 22:27N 38°43' W 009°07'0 0.0
2017-Oct-16 21:59N 38°43' W 009°07'0 0.0
2017-Oct-16 21:29N 38°43' W 009°07'0 0.0
2017-Oct-16 21:00N 38°43' W 009°07'0 0.0
2017-Oct-16 20:23N 38°43' W 009°07'0 0.0
2017-Oct-16 19:59N 38°43' W 009°07'0 0.0
2017-Oct-16 19:30N 38°43' W 009°07'0 0.0
2017-Oct-16 19:00N 38°43' W 009°07'0 0.0
2017-Oct-16 18:27N 38°43' W 009°07'0 0.0
2017-Oct-16 18:00N 38°43' W 009°07'0 0.0
2017-Oct-16 17:00N 38°43' W 009°07'0 0.0
2017-Oct-16 16:09N 38°43' W 009°07'0 0.0
2017-Oct-16 16:01N 38°43' W 009°07'0 0.0
2017-Oct-16 15:11N 38°43' W 009°07'0 0.0
2017-Oct-16 14:59N 38°43' W 009°07'0 0.0
2017-Oct-16 13:58N 38°43' W 009°07'0 0.0
2017-Oct-16 13:30N 38°43' W 009°07'0 0.0
2017-Oct-16 09:23N 38°43' W 009°07'0 0.0
2017-Oct-16 08:59N 38°43' W 009°07'0 0.0
2017-Oct-16 05:55N 38°43' W 009°07'1 3.2
2017-Oct-16 05:30N 38°42' W 009°08'5 9.1
2017-Oct-16 04:59N 38°41' W 009°14'511.3
2017-Oct-16 04:30N 38°39' W 009°21'714.4
2017-Oct-16 04:00N 38°32' W 009°24'611.6
2017-Oct-16 03:30N 38°26' W 009°25'510.7
2017-Oct-16 03:00N 38°21' W 009°25'510.7
2017-Oct-16 02:30N 38°16' W 009°24'611.2
2017-Oct-16 02:00N 38°10' W 009°23'511.0
2017-Oct-16 01:30N 38°05' W 009°23'510.7
2017-Oct-16 01:00N 37°59' W 009°23'510.6
2017-Oct-16 00:30N 37°54' W 009°23'5 9.7
2017-Oct-16 00:00N 37°49' W 009°22'714.6
2017-Oct-15 23:30N 37°42' W 009°22'816.4
2017-Oct-15 23:00N 37°34' W 009°21'4015.9
2017-Oct-15 20:28N 36°53' W 009°19'815.7
2017-Oct-15 19:58N 36°48' W 009°13'1314.8
2017-Oct-15 19:07N 36°45' W 008°57'216.0
2017-Oct-15 19:00N 36°46' W 008°56'1015.9
2017-Oct-15 18:24N 36°53' W 008°47'616.4
2017-Oct-15 18:00N 36°57' W 008°42'816.8
2017-Oct-15 17:30N 37°03' W 008°35'5 9.4
2017-Oct-15 17:00N 37°08' W 008°32'0 0.1
2017-Oct-15 16:30N 37°08' W 008°32'0 0.0
2017-Oct-15 16:00N 37°08' W 008°32'0 0.0
2017-Oct-15 15:28N 37°08' W 008°32'0 0.0
2017-Oct-15 14:58N 37°08' W 008°32'0 0.0
2017-Oct-15 13:57N 37°08' W 008°32'0 0.0
2017-Oct-15 13:30N 37°08' W 008°32'0 0.0
2017-Oct-15 12:57N 37°08' W 008°32'0 0.0
2017-Oct-15 12:26N 37°08' W 008°32'0 0.0
2017-Oct-15 11:59N 37°08' W 008°32'0 0.0
2017-Oct-15 11:17N 37°08' W 008°32'0 0.0
2017-Oct-15 10:58N 37°08' W 008°32'0 0.0
2017-Oct-15 10:31N 37°08' W 008°32'0 0.0
2017-Oct-15 10:01N 37°08' W 008°32'0 0.0
2017-Oct-15 09:31N 37°08' W 008°32'0 0.0
2017-Oct-15 08:18N 37°08' W 008°32'0 0.0
2017-Oct-15 07:56N 37°08' W 008°32'0 0.0
2017-Oct-15 07:11N 37°08' W 008°32'0 0.0
2017-Oct-15 07:00N 37°08' W 008°32'0 0.3
2017-Oct-15 06:30N 37°08' W 008°32'4 8.2
2017-Oct-15 06:00N 37°03' W 008°31'5 9.9
2017-Oct-15 05:30N 36°59' W 008°28'611.2
2017-Oct-15 05:00N 36°54' W 008°25'611.3
2017-Oct-15 04:30N 36°49' W 008°22'611.0
2017-Oct-15 04:00N 36°45' W 008°17'611.1
2017-Oct-15 03:30N 36°45' W 008°10'611.0
2017-Oct-15 02:59N 36°45' W 008°03'510.9
2017-Oct-15 02:30N 36°45' W 007°56'510.3
2017-Oct-15 02:00N 36°45' W 007°50'611.4
2017-Oct-15 01:28N 36°45' W 007°42'611.9
2017-Oct-15 00:58N 36°45' W 007°35'9 0.2
2017-Oct-13 02:27N 36°40' W 007°44'711.1
2017-Oct-13 01:50N 36°39' W 007°52'411.2
2017-Oct-13 01:30N 36°39' W 007°57'910.9
2017-Oct-13 00:42N 36°38' W 008°08'1214.8
2017-Oct-12 23:53N 36°37' W 008°23'616.1
2017-Oct-12 23:30N 36°35' W 008°30'1315.5
2017-Oct-12 22:38N 36°33' W 008°47'316.6
2017-Oct-12 22:27N 36°33' W 008°51'716.3
2017-Oct-12 22:00N 36°32' W 008°60'916.7
2017-Oct-12 21:29N 36°33' W 009°11'1316.7
2017-Oct-12 20:43N 36°41' W 009°24'416.3
2017-Oct-12 20:30N 36°43' W 009°27'9315.9
2017-Oct-12 14:42N 38°13' W 009°54'916.6
2017-Oct-12 14:10N 38°22' W 009°58'416.4
2017-Oct-12 13:54N 38°26' W 009°60'716.9
2017-Oct-12 13:30N 38°32' W 010°03'916.7
2017-Oct-12 12:59N 38°40' W 010°05'815.9
2017-Oct-12 12:30N 38°48' W 010°06'816.5
2017-Oct-12 12:00N 38°56' W 010°05'816.6
2017-Oct-12 11:31N 39°05' W 010°05'1815.1
2017-Oct-12 10:18N 39°23' W 010°07'2015.6
2017-Oct-12 09:02N 39°42' W 010°06'116.3
2017-Oct-12 09:00N 39°43' W 010°06'49911.5
2017-Oct-10 13:33N 47°37' W 006°29'7816.8
2017-Oct-10 08:53N 48°51' W 005°49'9815.0
2017-Oct-10 02:21N 49°43' W 003°42'916.8
2017-Oct-10 01:49N 49°48' W 003°30'516.5
2017-Oct-10 01:30N 49°51' W 003°24'815.9
2017-Oct-10 01:00N 49°54' W 003°13'815.4
2017-Oct-10 00:30N 49°57' W 003°02'714.7
2017-Oct-10 00:01N 49°60' W 002°51'7413.5
2017-Oct-09 18:33N 50°29' W 001°06'117.1
2017-Oct-09 18:31N 50°30' W 001°05'816.1
2017-Oct-09 18:00N 50°37' W 000°59'611.5
2017-Oct-09 17:30N 50°43' W 000°59'715.0
2017-Oct-09 17:00N 50°46' W 001°10'611.2
2017-Oct-09 16:30N 50°48' W 001°18'4 8.7
2017-Oct-09 16:00N 50°52' W 001°21'0 0.0
2017-Oct-09 04:40N 50°52' W 001°21'211.0
2017-Oct-09 04:30N 50°50' W 001°19'4 8.1
2017-Oct-09 04:00N 50°47' W 001°17'816.1
2017-Oct-09 03:30N 50°45' W 001°05'612.3
2017-Oct-09 03:00N 50°40' W 000°59'510.7
2017-Oct-09 02:30N 50°35' W 001°01'4 8.3
2017-Oct-09 02:00N 50°31' W 001°05'4 8.4
2017-Oct-09 01:30N 50°30' W 001°11'4610.1
2017-Oct-08 20:54N 50°18' W 002°21'614.0
2017-Oct-08 20:30N 50°17' W 002°30'713.2
2017-Oct-08 20:00N 50°15' W 002°40'918.0
2017-Oct-08 19:30N 50°13' W 002°53'917.6
2017-Oct-08 19:00N 50°10' W 003°06'917.5
2017-Oct-08 18:30N 50°04' W 003°16'917.2
2017-Oct-08 18:00N 49°58' W 003°26'816.8
2017-Oct-08 17:30N 49°52' W 003°36'916.6
2017-Oct-08 16:59N 49°47' W 003°46'1516.3
2017-Oct-08 16:04N 49°34' W 003°58'  
Track history (hours):
 
Tides and Currents Weather Stations Pressure Air Temp Water Temp Dewpoint Dewpoint Depression Visibility Wind Speed Wind Dir Waves Ship Positions

Ms Braemar

Last reported at 2017-Oct-17 17:58 UTC. Time now 2017-Oct-18 11:06 UTC.
Position N 39°18' W 009°45'.

Length 196 m; draft 5.7 m.

Type: Passenger vessel. MMSI: 311541000.

Date/timePositionNaut miles runAvg speedWind from/ knotsBaromVisibWave heightAir tempDewpointWater temp
2017-Oct-17 17:58N 39°18' W 009°45'714.9
2017-Oct-17 17:30N 39°12' W 009°44'815.6
2017-Oct-17 17:00N 39°04' W 009°44'815.3
2017-Oct-17 16:30N 38°56' W 009°44'815.5
2017-Oct-17 16:00N 38°48' W 009°43'815.4
2017-Oct-17 15:30N 38°41' W 009°43'714.0
2017-Oct-17 15:00N 38°37' W 009°35'815.3
2017-Oct-17 14:30N 38°36' W 009°25'815.3
2017-Oct-17 14:00N 38°41' W 009°18'711.8
2017-Oct-17 13:25N 38°42' W 009°09'2 3.9
2017-Oct-17 12:59N 38°43' W 009°07'0 0.0
2017-Oct-17 12:14N 38°43' W 009°07'0 0.0
2017-Oct-17 11:59N 38°43' W 009°07'0 0.0
2017-Oct-17 11:29N 38°43' W 009°07'0 0.0
2017-Oct-17 08:59N 38°43' W 009°07'0 0.0
2017-Oct-17 08:20N 38°43' W 009°07'0 0.0
2017-Oct-17 07:56N 38°43' W 009°07'0 0.0
2017-Oct-17 07:29N 38°43' W 009°07'0 0.0
2017-Oct-17 06:59N 38°43' W 009°07'0 0.0
2017-Oct-17 06:29N 38°43' W 009°07'0 0.0
2017-Oct-17 05:59N 38°43' W 009°07'0 0.0
2017-Oct-17 05:29N 38°43' W 009°07'0 0.0
2017-Oct-17 04:56N 38°43' W 009°07'0 0.0
2017-Oct-17 04:29N 38°43' W 009°07'0 0.0
2017-Oct-17 03:59N 38°43' W 009°07'0 0.0
2017-Oct-17 03:14N 38°43' W 009°07'0 0.0
2017-Oct-17 02:59N 38°43' W 009°07'0 0.0
2017-Oct-17 02:29N 38°43' W 009°07'0 0.0
2017-Oct-17 01:59N 38°43' W 009°07'0 0.0
2017-Oct-17 01:11N 38°43' W 009°07'0 0.0
2017-Oct-17 00:59N 38°43' W 009°07'0 0.0
2017-Oct-17 00:01N 38°43' W 009°07'0 0.0
2017-Oct-16 23:40N 38°43' W 009°07'0 0.0
2017-Oct-16 23:28N 38°43' W 009°07'0 0.0
2017-Oct-16 23:00N 38°43' W 009°07'0 0.0
2017-Oct-16 22:27N 38°43' W 009°07'0 0.0
2017-Oct-16 21:59N 38°43' W 009°07'0 0.0
2017-Oct-16 21:29N 38°43' W 009°07'0 0.0
2017-Oct-16 21:00N 38°43' W 009°07'0 0.0
2017-Oct-16 20:23N 38°43' W 009°07'0 0.0
2017-Oct-16 19:59N 38°43' W 009°07'0 0.0
2017-Oct-16 19:30N 38°43' W 009°07'0 0.0
2017-Oct-16 19:00N 38°43' W 009°07'0 0.0
2017-Oct-16 18:27N 38°43' W 009°07'0 0.0
2017-Oct-16 18:00N 38°43' W 009°07'0 0.0
2017-Oct-16 17:00N 38°43' W 009°07'0 0.0
2017-Oct-16 16:09N 38°43' W 009°07'0 0.0
2017-Oct-16 16:01N 38°43' W 009°07'0 0.0
2017-Oct-16 15:11N 38°43' W 009°07'0 0.0
2017-Oct-16 14:59N 38°43' W 009°07'0 0.0
2017-Oct-16 13:58N 38°43' W 009°07'0 0.0
2017-Oct-16 13:30N 38°43' W 009°07'0 0.0
2017-Oct-16 09:23N 38°43' W 009°07'0 0.0
2017-Oct-16 08:59N 38°43' W 009°07'0 0.0
2017-Oct-16 05:55N 38°43' W 009°07'1 3.2
2017-Oct-16 05:30N 38°42' W 009°08'5 9.1
2017-Oct-16 04:59N 38°41' W 009°14'511.3
2017-Oct-16 04:30N 38°39' W 009°21'714.4
2017-Oct-16 04:00N 38°32' W 009°24'611.6
2017-Oct-16 03:30N 38°26' W 009°25'510.7
2017-Oct-16 03:00N 38°21' W 009°25'510.7
2017-Oct-16 02:30N 38°16' W 009°24'611.2
2017-Oct-16 02:00N 38°10' W 009°23'511.0
2017-Oct-16 01:30N 38°05' W 009°23'510.7
2017-Oct-16 01:00N 37°59' W 009°23'510.6
2017-Oct-16 00:30N 37°54' W 009°23'5 9.7
2017-Oct-16 00:00N 37°49' W 009°22'714.6
2017-Oct-15 23:30N 37°42' W 009°22'816.4
2017-Oct-15 23:00N 37°34' W 009°21'4015.9
2017-Oct-15 20:28N 36°53' W 009°19'815.7
2017-Oct-15 19:58N 36°48' W 009°13'1314.8
2017-Oct-15 19:07N 36°45' W 008°57'216.0
2017-Oct-15 19:00N 36°46' W 008°56'1015.9
2017-Oct-15 18:24N 36°53' W 008°47'616.4
2017-Oct-15 18:00N 36°57' W 008°42'816.8
2017-Oct-15 17:30N 37°03' W 008°35'5 9.4
2017-Oct-15 17:00N 37°08' W 008°32'0 0.1
2017-Oct-15 16:30N 37°08' W 008°32'0 0.0
2017-Oct-15 16:00N 37°08' W 008°32'0 0.0
2017-Oct-15 15:28N 37°08' W 008°32'0 0.0
2017-Oct-15 14:58N 37°08' W 008°32'0 0.0
2017-Oct-15 13:57N 37°08' W 008°32'0 0.0
2017-Oct-15 13:30N 37°08' W 008°32'0 0.0
2017-Oct-15 12:57N 37°08' W 008°32'0 0.0
2017-Oct-15 12:26N 37°08' W 008°32'0 0.0
2017-Oct-15 11:59N 37°08' W 008°32'0 0.0
2017-Oct-15 11:17N 37°08' W 008°32'0 0.0
2017-Oct-15 10:58N 37°08' W 008°32'0 0.0
2017-Oct-15 10:31N 37°08' W 008°32'0 0.0
2017-Oct-15 10:01N 37°08' W 008°32'0 0.0
2017-Oct-15 09:31N 37°08' W 008°32'0 0.0
2017-Oct-15 08:18N 37°08' W 008°32'0 0.0
2017-Oct-15 07:56N 37°08' W 008°32'0 0.0
2017-Oct-15 07:11N 37°08' W 008°32'0 0.0
2017-Oct-15 07:00N 37°08' W 008°32'0 0.3
2017-Oct-15 06:30N 37°08' W 008°32'4 8.2
2017-Oct-15 06:00N 37°03' W 008°31'5 9.9
2017-Oct-15 05:30N 36°59' W 008°28'611.2
2017-Oct-15 05:00N 36°54' W 008°25'611.3
2017-Oct-15 04:30N 36°49' W 008°22'611.0
2017-Oct-15 04:00N 36°45' W 008°17'611.1
2017-Oct-15 03:30N 36°45' W 008°10'611.0
2017-Oct-15 02:59N 36°45' W 008°03'510.9
2017-Oct-15 02:30N 36°45' W 007°56'510.3
2017-Oct-15 02:00N 36°45' W 007°50'611.4
2017-Oct-15 01:28N 36°45' W 007°42'611.9
2017-Oct-15 00:58N 36°45' W 007°35'9 0.2
2017-Oct-13 02:27N 36°40' W 007°44'711.1
2017-Oct-13 01:50N 36°39' W 007°52'411.2
2017-Oct-13 01:30N 36°39' W 007°57'910.9
2017-Oct-13 00:42N 36°38' W 008°08'1214.8
2017-Oct-12 23:53N 36°37' W 008°23'616.1
2017-Oct-12 23:30N 36°35' W 008°30'1315.5
2017-Oct-12 22:38N 36°33' W 008°47'316.6
2017-Oct-12 22:27N 36°33' W 008°51'716.3
2017-Oct-12 22:00N 36°32' W 008°60'916.7
2017-Oct-12 21:29N 36°33' W 009°11'1316.7
2017-Oct-12 20:43N 36°41' W 009°24'416.3
2017-Oct-12 20:30N 36°43' W 009°27'9315.9
2017-Oct-12 14:42N 38°13' W 009°54'916.6
2017-Oct-12 14:10N 38°22' W 009°58'416.4
2017-Oct-12 13:54N 38°26' W 009°60'716.9
2017-Oct-12 13:30N 38°32' W 010°03'916.7
2017-Oct-12 12:59N 38°40' W 010°05'815.9
2017-Oct-12 12:30N 38°48' W 010°06'816.5
2017-Oct-12 12:00N 38°56' W 010°05'816.6
2017-Oct-12 11:31N 39°05' W 010°05'1815.1
2017-Oct-12 10:18N 39°23' W 010°07'2015.6
2017-Oct-12 09:02N 39°42' W 010°06'116.3
2017-Oct-12 09:00N 39°43' W 010°06'49911.5
2017-Oct-10 13:33N 47°37' W 006°29'7816.8
2017-Oct-10 08:53N 48°51' W 005°49'9815.0
2017-Oct-10 02:21N 49°43' W 003°42'916.8
2017-Oct-10 01:49N 49°48' W 003°30'516.5
2017-Oct-10 01:30N 49°51' W 003°24'815.9
2017-Oct-10 01:00N 49°54' W 003°13'815.4
2017-Oct-10 00:30N 49°57' W 003°02'714.7
2017-Oct-10 00:01N 49°60' W 002°51'7413.5
2017-Oct-09 18:33N 50°29' W 001°06'117.1
2017-Oct-09 18:31N 50°30' W 001°05'816.1
2017-Oct-09 18:00N 50°37' W 000°59'611.5
2017-Oct-09 17:30N 50°43' W 000°59'715.0
2017-Oct-09 17:00N 50°46' W 001°10'611.2
2017-Oct-09 16:30N 50°48' W 001°18'4 8.7
2017-Oct-09 16:00N 50°52' W 001°21'0 0.0
2017-Oct-09 04:40N 50°52' W 001°21'211.0
2017-Oct-09 04:30N 50°50' W 001°19'4 8.1
2017-Oct-09 04:00N 50°47' W 001°17'816.1
2017-Oct-09 03:30N 50°45' W 001°05'612.3
2017-Oct-09 03:00N 50°40' W 000°59'510.7
2017-Oct-09 02:30N 50°35' W 001°01'4 8.3
2017-Oct-09 02:00N 50°31' W 001°05'4 8.4
2017-Oct-09 01:30N 50°30' W 001°11'4610.1
2017-Oct-08 20:54N 50°18' W 002°21'614.0
2017-Oct-08 20:30N 50°17' W 002°30'713.2
2017-Oct-08 20:00N 50°15' W 002°40'918.0
2017-Oct-08 19:30N 50°13' W 002°53'917.6
2017-Oct-08 19:00N 50°10' W 003°06'917.5
2017-Oct-08 18:30N 50°04' W 003°16'917.2
2017-Oct-08 18:00N 49°58' W 003°26'816.8
2017-Oct-08 17:30N 49°52' W 003°36'916.6
2017-Oct-08 16:59N 49°47' W 003°46'1516.3
2017-Oct-08 16:04N 49°34' W 003°58'  

Dump ship's entire track history